Time;durP1;ratioP1;P1;durP2;ratioP2;P2;SDS_P1;SDS_P2;PMS_P1;PMS_P2;Temp;Humidity;BMP_temperature;BMP_pressure;BME280_temperature;BME280_humidity;BME280_pressure;Samples;Min_cycle;Max_cycle;Signal;HPM_P1;HPM_P2
2022/04/15 00:01:49;;;;;;;8.40;4.80;;;9.10;99.90;;;;;;4911555;29;20040;-38
2022/04/15 00:04:15;;;;;;;9.52;4.65;;;9.10;99.90;;;;;;4908067;29;20430;-38
2022/04/15 00:06:41;;;;;;;9.43;4.88;;;9.10;99.90;;;;;;4908770;29;20161;-39
2022/04/15 00:09:06;;;;;;;9.57;5.45;;;8.90;99.90;;;;;;4911712;29;20043;-45
2022/04/15 00:11:32;;;;;;;9.68;5.25;;;8.90;99.90;;;;;;4923258;29;20075;-49
2022/04/15 00:14:00;;;;;;;10.57;5.88;;;8.80;99.90;;;;;;4911068;29;20067;-40
2022/04/15 00:16:25;;;;;;;7.88;4.55;;;8.80;99.90;;;;;;4910328;29;20051;-37
2022/04/15 00:18:51;;;;;;;10.60;5.95;;;8.80;99.90;;;;;;4911468;29;20055;-38
2022/04/15 00:21:17;;;;;;;9.68;4.78;;;8.80;99.90;;;;;;4911550;29;20080;-39
2022/04/15 00:23:43;;;;;;;11.60;5.93;;;8.80;99.90;;;;;;4927585;29;20145;-44
2022/04/15 00:26:08;;;;;;;10.10;5.85;;;8.70;99.90;;;;;;4944556;28;20404;-39
2022/04/15 00:28:34;;;;;;;8.77;4.63;;;8.70;99.90;;;;;;4950207;28;20039;-41
2022/04/15 00:31:00;;;;;;;8.88;5.32;;;8.70;99.90;;;;;;4934595;29;20629;-47
2022/04/15 00:33:26;;;;;;;11.52;5.82;;;8.70;99.90;;;;;;4930933;29;20070;-43
2022/04/15 00:35:51;;;;;;;11.02;4.18;;;8.60;99.90;;;;;;4948170;28;20054;-40
2022/04/15 00:38:18;;;;;;;12.98;5.60;;;8.60;99.90;;;;;;4947776;28;20043;-42
2022/04/15 00:40:43;;;;;;;9.35;4.18;;;8.60;99.90;;;;;;4949946;29;20051;-45
2022/04/15 00:43:09;;;;;;;10.35;5.07;;;8.50;99.90;;;;;;4943466;29;20028;-41
2022/04/15 00:45:35;;;;;;;9.63;4.65;;;8.50;99.90;;;;;;4948146;28;20035;-46
2022/04/15 00:48:01;;;;;;;7.85;4.47;;;8.50;99.90;;;;;;4947781;29;20027;-41
2022/04/15 00:50:30;;;;;;;9.18;5.68;;;8.40;99.90;;;;;;4945974;28;20039;-42
2022/04/15 00:52:58;;;;;;;11.82;6.18;;;8.40;99.90;;;;;;4949809;28;20445;-42
2022/04/15 00:55:25;;;;;;;10.23;5.78;;;8.40;99.90;;;;;;4946875;28;20063;-44
2022/04/15 00:57:57;;;;;;;10.68;5.45;;;8.30;99.90;;;;;;4947876;29;20058;-47
2022/04/15 01:00:23;;;;;;;7.93;4.47;;;8.30;99.90;;;;;;4939524;29;20043;-45
2022/04/15 01:02:49;;;;;;;7.68;4.05;;;8.30;99.90;;;;;;4947410;28;20043;-46
2022/04/15 01:05:16;;;;;;;8.35;4.18;;;8.20;99.90;;;;;;4945207;28;20042;-42
2022/04/15 01:07:47;;;;;;;10.60;4.90;;;8.10;99.90;;;;;;4941265;29;20407;-38
2022/04/15 01:10:14;;;;;;;8.90;4.60;;;8.10;99.90;;;;;;4944468;29;20094;-48
2022/04/15 01:12:43;;;;;;;8.98;4.88;;;8.10;99.90;;;;;;4948127;28;20035;-41
2022/04/15 01:15:12;;;;;;;11.52;4.53;;;8.10;99.90;;;;;;4947238;29;20432;-50
2022/04/15 01:17:38;;;;;;;9.02;4.82;;;8.10;99.90;;;;;;4948009;28;20047;-43
2022/04/15 01:20:07;;;;;;;7.40;4.63;;;8.10;99.90;;;;;;4942248;29;20039;-43
2022/04/15 01:22:38;;;;;;;9.38;5.10;;;8.10;99.90;;;;;;4942613;29;20079;-45
2022/04/15 01:25:05;;;;;;;9.15;4.57;;;8.10;99.90;;;;;;4949689;28;20078;-43
2022/04/15 01:27:36;;;;;;;9.00;4.97;;;8.00;99.90;;;;;;4946815;29;20078;-42
2022/04/15 01:30:04;;;;;;;10.05;5.32;;;8.00;99.90;;;;;;4947158;28;20035;-46
2022/04/15 01:32:29;;;;;;;9.63;5.07;;;7.90;99.90;;;;;;4946222;29;20035;-44
2022/04/15 01:34:55;;;;;;;8.50;4.38;;;7.90;99.90;;;;;;4945809;29;20031;-40
2022/04/15 01:37:23;;;;;;;9.80;5.20;;;7.90;99.90;;;;;;4948317;29;20481;-44
2022/04/15 01:39:49;;;;;;;8.25;5.00;;;7.90;99.90;;;;;;4947744;29;20039;-40
2022/04/15 01:42:16;;;;;;;6.70;4.25;;;7.90;99.90;;;;;;4948341;29;20429;-41
2022/04/15 01:44:43;;;;;;;8.43;4.25;;;7.80;99.90;;;;;;4930593;28;20121;-40
2022/04/15 01:47:11;;;;;;;8.80;5.25;;;7.80;99.90;;;;;;4927053;29;20047;-38
2022/04/15 01:49:37;;;;;;;7.15;4.88;;;7.80;99.90;;;;;;4948701;28;20110;-37
2022/04/15 01:52:04;;;;;;;9.43;5.10;;;7.80;99.90;;;;;;4946002;29;20556;-40
2022/04/15 01:54:30;;;;;;;8.23;4.82;;;7.70;99.90;;;;;;4947868;29;20094;-38
2022/04/15 01:56:56;;;;;;;8.80;4.82;;;7.70;99.90;;;;;;4946354;29;20035;-38
2022/04/15 01:59:22;;;;;;;8.32;4.95;;;7.70;99.90;;;;;;4926547;29;20058;-38
2022/04/15 02:01:49;;;;;;;7.47;4.50;;;7.70;99.90;;;;;;4947472;29;20043;-41
2022/04/15 02:04:15;;;;;;;8.55;4.00;;;7.70;99.90;;;;;;4947331;29;20144;-40
2022/04/15 02:06:40;;;;;;;10.55;4.60;;;7.60;99.90;;;;;;4944142;29;20070;-41
2022/04/15 02:09:06;;;;;;;8.05;4.15;;;7.60;99.90;;;;;;4945021;29;20046;-45
2022/04/15 02:11:34;;;;;;;8.45;4.32;;;7.60;99.90;;;;;;4947178;29;20045;-40
2022/04/15 02:13:59;;;;;;;8.32;4.50;;;7.50;99.90;;;;;;4929968;29;20389;-41
2022/04/15 02:16:25;;;;;;;8.90;4.53;;;7.50;99.90;;;;;;4944781;29;20062;-41
2022/04/15 02:18:51;;;;;;;9.05;4.82;;;7.50;99.90;;;;;;4940888;29;20122;-40
2022/04/15 02:21:16;;;;;;;7.60;3.95;;;7.40;99.90;;;;;;4942444;29;20054;-40
2022/04/15 02:23:42;;;;;;;10.05;4.78;;;7.40;99.90;;;;;;4944366;28;20047;-42
2022/04/15 02:26:08;;;;;;;9.93;4.45;;;7.40;99.90;;;;;;4930780;29;20043;-41
2022/04/15 02:28:33;;;;;;;9.05;4.60;;;7.40;99.90;;;;;;4943992;29;20043;-40
2022/04/15 02:30:59;;;;;;;8.10;4.00;;;7.40;99.90;;;;;;4947449;28;20078;-40
2022/04/15 02:33:24;;;;;;;5.03;3.38;;;7.30;99.90;;;;;;4945818;29;20046;-40
2022/04/15 02:35:50;;;;;;;7.55;4.75;;;7.30;99.90;;;;;;4942941;29;20424;-40
2022/04/15 02:38:16;;;;;;;7.55;4.22;;;7.40;99.90;;;;;;4947309;29;20166;-39
2022/04/15 02:40:43;;;;;;;7.15;4.40;;;7.40;99.90;;;;;;4947167;28;20078;-42
2022/04/15 02:43:10;;;;;;;7.72;4.93;;;7.40;99.90;;;;;;4938073;28;20046;-40
2022/04/15 02:45:36;;;;;;;10.50;4.75;;;7.40;99.90;;;;;;4942433;29;20143;-43
2022/04/15 02:48:02;;;;;;;10.48;5.45;;;7.40;99.90;;;;;;4928740;29;20130;-39
2022/04/15 02:50:29;;;;;;;8.65;4.80;;;7.40;99.90;;;;;;4942920;28;20394;-40
2022/04/15 02:52:54;;;;;;;6.63;4.10;;;7.30;99.90;;;;;;4940246;28;20174;-40
2022/04/15 02:55:20;;;;;;;8.18;5.20;;;7.30;99.90;;;;;;4944980;29;20114;-44
2022/04/15 02:57:46;;;;;;;11.80;4.72;;;7.20;99.90;;;;;;4939470;29;20142;-39
2022/04/15 03:00:14;;;;;;;9.63;4.30;;;7.20;99.90;;;;;;4948426;29;20043;-40
2022/04/15 03:02:40;;;;;;;7.50;4.07;;;7.20;99.90;;;;;;4946534;29;20043;-38
2022/04/15 03:05:09;;;;;;;9.75;4.43;;;7.20;99.90;;;;;;4942559;29;20039;-40
2022/04/15 03:07:38;;;;;;;6.68;4.20;;;7.20;99.90;;;;;;4943646;28;20588;-40
2022/04/15 03:10:05;;;;;;;7.47;4.45;;;7.20;99.90;;;;;;4943224;29;20043;-39
2022/04/15 03:12:35;;;;;;;7.70;4.10;;;7.20;99.90;;;;;;4933682;29;20062;-39
2022/04/15 03:15:02;;;;;;;7.32;4.30;;;7.30;99.90;;;;;;4946761;29;20078;-39
2022/04/15 03:17:28;;;;;;;5.38;3.50;;;7.30;99.90;;;;;;4943716;29;20077;-41
2022/04/15 03:19:54;;;;;;;7.18;4.07;;;7.40;99.90;;;;;;4944786;28;20110;-41
2022/04/15 03:22:20;;;;;;;7.20;3.55;;;7.40;99.90;;;;;;4940943;28;20557;-40
2022/04/15 03:24:47;;;;;;;10.43;4.40;;;7.40;99.90;;;;;;4946767;29;20078;-38
2022/04/15 03:27:13;;;;;;;8.68;4.40;;;7.50;99.90;;;;;;4929164;29;20047;-40
2022/04/15 03:29:38;;;;;;;5.45;3.25;;;7.50;99.90;;;;;;4945134;28;20044;-39
2022/04/15 03:32:04;;;;;;;6.28;3.58;;;7.50;99.90;;;;;;4943412;29;20381;-40
2022/04/15 03:34:30;;;;;;;6.60;3.65;;;7.60;99.90;;;;;;4944400;29;20428;-40
2022/04/15 03:36:56;;;;;;;9.73;4.72;;;7.60;99.90;;;;;;4943769;29;20071;-39
2022/04/15 03:39:21;;;;;;;9.48;4.38;;;7.70;99.90;;;;;;4945433;28;20079;-40
2022/04/15 03:41:47;;;;;;;5.95;2.95;;;7.70;99.90;;;;;;4944864;28;20138;-38
2022/04/15 03:44:12;;;;;;;7.82;4.10;;;7.80;99.90;;;;;;4945702;29;20054;-40
2022/04/15 03:46:38;;;;;;;6.50;3.42;;;7.80;99.90;;;;;;4932007;29;20066;-40
2022/04/15 03:49:05;;;;;;;5.03;3.22;;;7.90;99.90;;;;;;4944845;29;20047;-40
2022/04/15 03:51:31;;;;;;;5.72;3.45;;;7.90;99.90;;;;;;4942092;29;20051;-40
2022/04/15 03:53:56;;;;;;;7.50;3.58;;;8.00;99.90;;;;;;4945837;29;20039;-39
2022/04/15 03:56:22;;;;;;;5.32;2.67;;;8.00;99.90;;;;;;4945739;29;20062;-40
2022/04/15 03:58:47;;;;;;;5.47;3.13;;;8.00;99.90;;;;;;4946877;29;20031;-39
2022/04/15 04:01:13;;;;;;;5.90;3.33;;;8.00;99.90;;;;;;4942680;28;20047;-39
2022/04/15 04:03:39;;;;;;;9.55;3.97;;;8.00;99.90;;;;;;4929430;29;20113;-40
2022/04/15 04:06:04;;;;;;;6.95;3.22;;;8.00;99.90;;;;;;4950531;28;20118;-40
2022/04/15 04:08:30;;;;;;;6.20;3.92;;;8.00;99.90;;;;;;4942575;28;20062;-39
2022/04/15 04:10:56;;;;;;;7.93;3.97;;;8.10;99.90;;;;;;4951763;29;20031;-39
2022/04/15 04:13:22;;;;;;;9.52;4.43;;;8.10;99.90;;;;;;4943125;29;20066;-39
2022/04/15 04:15:48;;;;;;;6.40;3.83;;;8.10;99.90;;;;;;4950281;29;20118;-39
2022/04/15 04:18:14;;;;;;;5.32;3.22;;;8.20;99.90;;;;;;4949086;29;20186;-40
2022/04/15 04:20:41;;;;;;;10.30;4.40;;;8.20;99.90;;;;;;4942797;29;20115;-40
2022/04/15 04:23:06;;;;;;;7.45;3.88;;;8.20;99.90;;;;;;4944855;29;20158;-39
2022/04/15 04:25:32;;;;;;;7.70;3.70;;;8.20;99.90;;;;;;4947101;29;20126;-40
2022/04/15 04:27:58;;;;;;;6.15;3.05;;;8.20;99.90;;;;;;4950663;28;20098;-40
2022/04/15 04:30:24;;;;;;;5.47;3.83;;;8.20;99.90;;;;;;4949779;28;20114;-39
2022/04/15 04:32:49;;;;;;;6.43;3.78;;;8.20;99.90;;;;;;4948250;29;20519;-40
2022/04/15 04:35:19;;;;;;;6.68;3.70;;;8.20;99.90;;;;;;4949498;29;20051;-40
2022/04/15 04:37:45;;;;;;;9.50;4.32;;;8.10;99.90;;;;;;4947234;28;20143;-39
2022/04/15 04:40:11;;;;;;;5.93;3.35;;;8.10;99.90;;;;;;4934173;29;20032;-39
2022/04/15 04:42:38;;;;;;;6.25;3.72;;;8.10;99.90;;;;;;4950217;29;20094;-39
2022/04/15 04:45:04;;;;;;;8.48;4.53;;;8.10;99.90;;;;;;4928549;29;20047;-40
2022/04/15 04:47:30;;;;;;;8.85;4.57;;;8.20;99.90;;;;;;4948626;29;20342;-39
2022/04/15 04:49:56;;;;;;;8.38;4.57;;;8.20;99.90;;;;;;4943931;29;20055;-40
2022/04/15 04:52:23;;;;;;;8.50;4.35;;;8.20;99.90;;;;;;4944470;29;20062;-39
2022/04/15 04:54:49;;;;;;;6.07;4.05;;;8.20;99.90;;;;;;4934135;29;20039;-39
2022/04/15 04:57:15;;;;;;;9.70;3.53;;;8.20;99.90;;;;;;4942807;29;20051;-40
2022/04/15 04:59:40;;;;;;;8.65;4.30;;;8.20;99.90;;;;;;4943395;29;20043;-42
2022/04/15 05:02:09;;;;;;;6.10;3.63;;;8.20;99.90;;;;;;4941776;29;20027;-39
2022/04/15 05:04:40;;;;;;;7.25;4.38;;;8.20;99.90;;;;;;4945296;29;20436;-39
2022/04/15 05:07:05;;;;;;;8.82;3.95;;;8.20;99.90;;;;;;4947448;29;20413;-39
2022/04/15 05:09:31;;;;;;;6.40;3.63;;;8.20;99.90;;;;;;4943428;29;20050;-39
2022/04/15 05:11:57;;;;;;;6.72;4.00;;;8.20;99.90;;;;;;4949037;29;20035;-40
2022/04/15 05:14:23;;;;;;;8.93;4.30;;;8.20;99.90;;;;;;4948234;28;20042;-39
2022/04/15 05:16:48;;;;;;;5.68;3.67;;;8.20;99.90;;;;;;4950257;29;20076;-41
2022/04/15 05:19:14;;;;;;;6.70;3.92;;;8.30;99.90;;;;;;4943261;29;20035;-41
2022/04/15 05:21:41;;;;;;;4.95;3.03;;;8.30;99.90;;;;;;4947969;29;20038;-40
2022/04/15 05:24:08;;;;;;;6.13;4.20;;;8.30;99.90;;;;;;4946177;29;20048;-39
2022/04/15 05:26:34;;;;;;;8.13;4.45;;;8.30;99.90;;;;;;4950562;29;20441;-39
2022/04/15 05:29:01;;;;;;;7.03;3.90;;;8.40;99.90;;;;;;4944123;28;20408;-40
2022/04/15 05:31:26;;;;;;;7.35;3.90;;;8.40;99.90;;;;;;4930688;29;20046;-38
2022/04/15 05:33:52;;;;;;;6.85;3.83;;;8.40;99.90;;;;;;4942892;28;20043;-39
2022/04/15 05:36:18;;;;;;;6.15;3.97;;;8.40;99.90;;;;;;4947240;29;20046;-39
2022/04/15 05:38:43;;;;;;;6.28;4.18;;;8.40;99.90;;;;;;4947519;29;20411;-39
2022/04/15 05:41:09;;;;;;;6.00;3.15;;;8.40;99.90;;;;;;4946429;28;20047;-39
2022/04/15 05:43:35;;;;;;;9.93;4.45;;;8.40;99.90;;;;;;4934352;29;20039;-39
2022/04/15 05:46:00;;;;;;;8.75;4.43;;;8.40;99.90;;;;;;4942272;29;20419;-39
2022/04/15 05:48:26;;;;;;;15.68;6.30;;;8.50;99.90;;;;;;4943238;29;20032;-39
2022/04/15 05:50:52;;;;;;;27.52;8.98;;;8.40;99.90;;;;;;4925026;29;20078;-42
2022/04/15 05:53:18;;;;;;;10.43;5.82;;;8.50;99.90;;;;;;4931958;29;20935;-39
2022/04/15 05:55:44;;;;;;;8.70;4.80;;;8.50;99.90;;;;;;4941890;29;20047;-38
2022/04/15 05:58:10;;;;;;;9.90;5.00;;;8.50;99.90;;;;;;4927766;29;20118;-40
2022/04/15 06:00:37;;;;;;;9.38;4.60;;;8.50;99.90;;;;;;4946699;28;20039;-38
2022/04/15 06:03:03;;;;;;;5.15;3.50;;;8.50;99.90;;;;;;4944675;29;20126;-40
2022/04/15 06:05:28;;;;;;;6.80;4.00;;;8.60;99.90;;;;;;4942140;29;20042;-39
2022/04/15 06:07:54;;;;;;;5.95;4.10;;;8.60;99.90;;;;;;4928752;28;20047;-40
2022/04/15 06:10:20;;;;;;;7.90;4.28;;;8.60;99.90;;;;;;4945734;29;20050;-42
2022/04/15 06:12:57;;;;;;;8.85;4.30;;;8.60;99.90;;;;;;4944208;29;20141;-39
2022/04/15 06:15:24;;;;;;;12.15;5.28;;;8.60;99.90;;;;;;4945461;29;20569;-39
2022/04/15 06:17:51;;;;;;;9.05;4.57;;;8.70;99.90;;;;;;4943258;29;20040;-40
2022/04/15 06:20:17;;;;;;;6.82;3.78;;;8.70;99.90;;;;;;4943752;28;20075;-38
2022/04/15 06:22:44;;;;;;;7.47;4.20;;;8.70;99.90;;;;;;4944790;28;20111;-38
2022/04/15 06:25:10;;;;;;;8.65;3.90;;;8.70;99.90;;;;;;4910499;29;20079;-41
2022/04/15 06:27:36;;;;;;;7.63;4.30;;;8.70;99.90;;;;;;4903264;29;20402;-39
2022/04/15 06:30:03;;;;;;;12.38;4.47;;;8.70;99.90;;;;;;4908434;29;20080;-39
2022/04/15 06:32:29;;;;;;;7.18;4.18;;;8.70;99.90;;;;;;4906703;29;20585;-41
2022/04/15 06:34:55;;;;;;;5.68;4.00;;;8.80;99.90;;;;;;4905373;29;20080;-42
2022/04/15 06:37:20;;;;;;;7.40;4.53;;;8.80;99.90;;;;;;4903700;29;20051;-39
2022/04/15 06:39:50;;;;;;;10.75;5.22;;;8.90;99.90;;;;;;4909503;29;20040;-38
2022/04/15 06:42:25;;;;;;;9.80;5.10;;;8.90;99.90;;;;;;4905055;29;20048;-38
2022/04/15 06:44:52;;;;;;;10.48;4.55;;;9.00;99.90;;;;;;4908908;29;20028;-40
2022/04/15 06:47:18;;;;;;;9.40;5.15;;;9.10;99.90;;;;;;4913088;29;20044;-38
2022/04/15 06:49:45;;;;;;;6.97;4.63;;;9.10;99.90;;;;;;4908954;29;20054;-38
2022/04/15 06:52:12;;;;;;;8.32;5.35;;;9.10;99.90;;;;;;4908035;29;20119;-38
2022/04/15 06:54:38;;;;;;;9.23;4.57;;;9.10;99.90;;;;;;4909341;29;20131;-38
2022/04/15 06:57:04;;;;;;;6.15;4.07;;;9.10;99.90;;;;;;4908023;29;20122;-38
2022/04/15 06:59:29;;;;;;;7.97;3.80;;;9.10;99.90;;;;;;4905685;29;20096;-43
2022/04/15 07:01:55;;;;;;;6.30;3.78;;;9.20;99.90;;;;;;4903557;29;20050;-39
2022/04/15 07:04:22;;;;;;;6.60;3.75;;;9.20;99.90;;;;;;4910394;29;20413;-40
2022/04/15 07:06:49;;;;;;;5.65;3.65;;;9.20;99.90;;;;;;4910347;29;20044;-37
2022/04/15 07:09:14;;;;;;;6.57;3.35;;;9.20;99.90;;;;;;4907941;29;20490;-38
2022/04/15 07:11:41;;;;;;;5.75;3.38;;;9.20;99.90;;;;;;4906359;29;20052;-39
2022/04/15 07:14:06;;;;;;;79.82;14.60;;;9.20;99.90;;;;;;4908580;29;20036;-40
2022/04/15 07:16:34;;;;;;;184.45;31.33;;;9.20;99.90;;;;;;4906578;29;20574;-39
2022/04/15 07:19:07;;;;;;;33.20;6.53;;;9.30;99.90;;;;;;4902890;29;20054;-38
2022/04/15 07:21:39;;;;;;;51.10;6.72;;;9.30;99.90;;;;;;4903117;29;20147;-40
2022/04/15 07:24:06;;;;;;;13.15;3.42;;;9.40;99.90;;;;;;4913269;29;20056;-39
2022/04/15 07:26:33;;;;;;;4.80;2.33;;;9.40;99.90;;;;;;4926000;29;20152;-39
2022/04/15 07:29:00;;;;;;;6.28;2.80;;;9.40;99.90;;;;;;4922235;29;20027;-38
2022/04/15 07:31:26;;;;;;;6.13;2.25;;;9.50;99.90;;;;;;4927693;29;20078;-40
2022/04/15 07:33:52;;;;;;;501.98;81.55;;;9.60;99.90;;;;;;4928512;29;20064;-39
2022/04/15 07:39:10;;;;;;;6.97;2.20;;;9.70;99.90;;;;;;4925195;29;20119;-38
2022/04/15 07:41:37;;;;;;;4.40;1.77;;;9.80;99.90;;;;;;4927849;29;20047;-39
2022/04/15 07:44:04;;;;;;;3.85;2.13;;;9.70;99.90;;;;;;4926500;29;20106;-39
2022/04/15 07:46:30;;;;;;;3.95;2.25;;;9.70;99.90;;;;;;4931925;29;20077;-38
2022/04/15 07:48:55;;;;;;;4.85;2.40;;;9.60;99.90;;;;;;4930381;29;20043;-40
2022/04/15 07:51:21;;;;;;;4.57;2.75;;;9.50;99.90;;;;;;4928591;29;20043;-39
2022/04/15 07:53:47;;;;;;;6.95;2.53;;;9.50;99.90;;;;;;4929246;29;20032;-38
2022/04/15 07:56:12;;;;;;;4.07;2.22;;;9.40;99.90;;;;;;4931923;29;20052;-39
2022/04/15 07:58:38;;;;;;;5.70;2.60;;;9.40;99.90;;;;;;4928012;29;20119;-38
2022/04/15 08:01:04;;;;;;;4.70;2.70;;;9.40;99.90;;;;;;4927256;29;20044;-39
2022/04/15 08:03:29;;;;;;;6.07;2.80;;;9.40;99.90;;;;;;4929162;29;20055;-40
2022/04/15 08:05:56;;;;;;;5.38;2.30;;;9.40;99.90;;;;;;4927880;29;20054;-38
2022/04/15 08:08:21;;;;;;;4.68;2.42;;;9.40;99.90;;;;;;4930584;29;20040;-41
2022/04/15 08:10:51;;;;;;;4.80;2.42;;;9.40;99.90;;;;;;4931230;29;20043;-38
2022/04/15 08:13:18;;;;;;;4.88;2.10;;;9.40;99.90;;;;;;4925008;29;20050;-38
2022/04/15 08:15:44;;;;;;;6.55;2.38;;;9.30;99.90;;;;;;4930278;29;20043;-39
2022/04/15 08:18:09;;;;;;;5.75;2.75;;;9.30;99.90;;;;;;4929365;29;20039;-39
2022/04/15 08:20:35;;;;;;;3.03;1.80;;;9.30;99.90;;;;;;4933549;29;20031;-38
2022/04/15 08:23:00;;;;;;;3.92;1.90;;;9.20;99.90;;;;;;4931120;29;20040;-38
2022/04/15 08:25:26;;;;;;;4.25;2.00;;;9.20;99.90;;;;;;4910159;29;20055;-40
2022/04/15 08:27:52;;;;;;;8.15;3.00;;;9.30;99.90;;;;;;4914136;29;20494;-38
2022/04/15 08:30:17;;;;;;;6.47;2.28;;;9.30;99.90;;;;;;4908862;29;20083;-38
2022/04/15 08:32:49;;;;;;;3.20;1.80;;;9.30;99.90;;;;;;4913934;29;20075;-48
2022/04/15 08:35:15;;;;;;;9.70;2.33;;;9.30;99.90;;;;;;4916052;29;20036;-48
2022/04/15 08:37:41;;;;;;;4.40;1.75;;;9.30;99.90;;;;;;4906781;29;20054;-46
2022/04/15 08:40:08;;;;;;;6.65;1.85;;;9.30;99.90;;;;;;4924104;29;20059;-49
2022/04/15 08:42:34;;;;;;;4.05;2.05;;;9.30;99.90;;;;;;4916338;29;20116;-52
2022/04/15 08:45:01;;;;;;;3.67;1.90;;;9.30;99.90;;;;;;4919437;29;20042;-48
2022/04/15 08:47:29;;;;;;;4.72;2.03;;;9.30;99.90;;;;;;4916149;29;20071;-49
2022/04/15 08:49:56;;;;;;;3.67;2.28;;;9.30;99.90;;;;;;4913601;29;20111;-49
2022/04/15 08:52:24;;;;;;;4.65;1.90;;;9.20;99.90;;;;;;4911788;29;20056;-49
2022/04/15 08:54:50;;;;;;;6.63;1.98;;;9.20;99.90;;;;;;4895414;29;20040;-49
2022/04/15 08:57:15;;;;;;;4.38;2.10;;;9.20;99.90;;;;;;4893550;29;20040;-46
2022/04/15 08:59:41;;;;;;;4.82;1.92;;;9.10;99.90;;;;;;4898307;29;20190;-44
2022/04/15 09:02:07;;;;;;;3.60;1.98;;;9.10;99.90;;;;;;4901104;29;20103;-46
2022/04/15 09:04:33;;;;;;;5.28;2.28;;;9.10;99.90;;;;;;4918828;29;20035;-46
2022/04/15 09:07:00;;;;;;;3.88;2.08;;;9.20;99.90;;;;;;4913652;29;20036;-50
2022/04/15 09:09:33;;;;;;;6.28;2.63;;;9.20;99.90;;;;;;4912140;29;20040;-50
2022/04/15 09:12:00;;;;;;;;;;;9.30;99.90;;;;;;4910997;29;20051;-49
2022/04/15 09:14:26;;;;;;;4.40;2.55;;;9.30;99.90;;;;;;4908695;29;19919;-49
2022/04/15 09:16:53;;;;;;;8.43;3.22;;;9.30;99.90;;;;;;4903010;29;20048;-41
2022/04/15 09:19:19;;;;;;;7.15;3.40;;;9.30;99.90;;;;;;4922862;29;20058;-48
2022/04/15 09:21:53;;;;;;;10.07;3.55;;;9.40;99.90;;;;;;4907683;29;20379;-44
2022/04/15 09:24:36;;;;;;;11.18;3.60;;;9.40;99.90;;;;;;4922550;29;20070;-48
2022/04/15 09:27:06;;;;;;;6.35;3.47;;;9.40;99.90;;;;;;4940800;29;20448;-46
2022/04/15 09:29:40;;;;;;;5.93;3.47;;;9.50;99.90;;;;;;4931119;29;20058;-47
2022/04/15 09:32:14;;;;;;;7.88;3.97;;;9.50;99.90;;;;;;4946761;29;20062;-50
2022/04/15 09:35:00;;;;;;;9.38;4.63;;;9.60;99.90;;;;;;4930876;29;20465;-49
2022/04/15 09:37:31;;;;;;;8.88;3.28;;;9.70;99.90;;;;;;4950026;29;20036;-50
2022/04/15 09:40:07;;;;;;;8.67;3.60;;;9.70;99.90;;;;;;4946211;29;20046;-49
2022/04/15 09:42:36;;;;;;;6.97;4.10;;;9.80;99.90;;;;;;4946932;29;20119;-49
2022/04/15 09:45:19;;;;;;;10.32;4.00;;;9.90;99.90;;;;;;4926589;29;20046;-44
2022/04/15 09:48:05;;;;;;;8.85;4.40;;;10.00;99.90;;;;;;4939575;29;20058;-48
2022/04/15 09:50:37;;;;;;;8.95;4.75;;;10.00;99.90;;;;;;4931707;29;20509;-43
2022/04/15 09:53:13;;;;;;;12.45;4.60;;;10.10;99.90;;;;;;4943154;29;20497;-47
2022/04/15 09:55:50;;;;;;;9.13;4.15;;;10.10;99.90;;;;;;4943209;29;20118;-49
2022/04/15 09:58:18;;;;;;;7.13;4.35;;;10.20;99.90;;;;;;4945227;29;20150;-46
2022/04/15 10:00:51;;;;;;;6.75;3.38;;;10.10;99.90;;;;;;4943481;28;20055;-50
2022/04/15 10:03:27;;;;;;;7.88;4.45;;;10.20;99.90;;;;;;4942679;29;20052;-48
2022/04/15 10:05:55;;;;;;;11.52;4.78;;;10.30;99.90;;;;;;4945109;29;20733;-49
2022/04/15 10:08:23;;;;;;;20.95;4.97;;;10.30;99.90;;;;;;4943277;29;20035;-49
2022/04/15 10:10:49;;;;;;;8.98;4.40;;;10.40;99.90;;;;;;4945645;28;20094;-46
2022/04/15 10:13:16;;;;;;;8.38;4.20;;;10.40;99.90;;;;;;4939491;29;20090;-46
2022/04/15 10:15:43;;;;;;;8.43;4.22;;;10.50;99.90;;;;;;4908443;29;20058;-46
2022/04/15 10:18:09;;;;;;;9.27;4.68;;;10.50;99.90;;;;;;4944906;28;20031;-46
2022/04/15 10:20:38;;;;;;;8.30;4.43;;;10.60;99.90;;;;;;4939129;29;20127;-47
2022/04/15 10:23:09;;;;;;;10.02;5.20;;;10.60;99.90;;;;;;4948846;29;20099;-46
2022/04/15 10:25:36;;;;;;;8.70;4.72;;;10.70;99.90;;;;;;4944959;29;20039;-49
2022/04/15 10:28:11;;;;;;;9.57;4.20;;;10.70;99.90;;;;;;4945609;29;20035;-47
2022/04/15 10:30:38;;;;;;;11.05;5.10;;;10.80;99.90;;;;;;4942897;29;20373;-48
2022/04/15 10:33:04;;;;;;;7.75;4.95;;;10.90;99.90;;;;;;4947654;29;20070;-50
2022/04/15 10:35:32;;;;;;;8.90;5.28;;;10.90;99.90;;;;;;4939120;28;20843;-46
2022/04/15 10:38:09;;;;;;;9.05;5.50;;;10.90;99.90;;;;;;4940110;28;20054;-48
2022/04/15 10:40:35;;;;;;;10.63;5.38;;;10.90;99.90;;;;;;4943821;29;20039;-50
2022/04/15 10:43:18;;;;;;;9.20;5.03;;;10.90;99.90;;;;;;4944571;29;20031;-50
2022/04/15 10:45:44;;;;;;;7.60;4.53;;;10.90;99.90;;;;;;4947350;29;20062;-50
2022/04/15 10:48:10;;;;;;;9.65;4.82;;;11.00;99.90;;;;;;4932249;29;20035;-46
2022/04/15 10:50:38;;;;;;;6.57;3.47;;;11.10;99.90;;;;;;4940627;28;20194;-49
2022/04/15 10:53:25;;;;;;;6.18;3.67;;;11.20;99.90;;;;;;4941865;29;20071;-47
2022/04/15 10:55:54;;;;;;;7.82;4.55;;;11.30;99.90;;;;;;4940538;28;20082;-50
2022/04/15 10:58:21;;;;;;;8.27;3.88;;;11.30;99.90;;;;;;4941354;28;20339;-46
2022/04/15 11:01:19;;;;;;;7.63;4.65;;;11.30;99.90;;;;;;4927547;29;20427;-49
2022/04/15 11:04:03;;;;;;;8.95;4.75;;;11.40;99.90;;;;;;4939099;28;20109;-48
2022/04/15 11:06:29;;;;;;;7.80;4.07;;;11.50;99.90;;;;;;4938612;29;20079;-48
2022/04/15 11:08:55;;;;;;;8.05;4.13;;;11.50;99.90;;;;;;4921003;29;20044;-48
2022/04/15 11:11:34;;;;;;;9.10;3.97;;;11.50;99.90;;;;;;4936578;28;20047;-51
2022/04/15 11:14:05;;;;;;;8.35;4.13;;;11.40;99.90;;;;;;4949892;29;20114;-47
2022/04/15 11:16:46;;;;;;;7.63;3.97;;;11.40;99.90;;;;;;4939525;29;20551;-49
2022/04/15 11:19:22;;;;;;;6.18;4.05;;;11.40;99.90;;;;;;4938379;28;20066;-49
2022/04/15 11:21:50;;;;;;;6.18;3.25;;;11.50;99.90;;;;;;4947150;29;21472;-44
2022/04/15 11:24:28;;;;;;;7.75;4.72;;;11.60;99.90;;;;;;4948488;28;20098;-50
2022/04/15 11:27:00;;;;;;;7.28;4.30;;;11.70;99.90;;;;;;4950993;29;20047;-51
2022/04/15 11:29:30;;;;;;;6.68;3.92;;;11.70;99.90;;;;;;4934370;28;20414;-51
2022/04/15 11:32:07;;;;;;;10.88;4.90;;;11.80;99.90;;;;;;4926627;29;20118;-49
2022/04/15 11:34:33;;;;;;;7.63;3.45;;;11.90;99.90;;;;;;4922969;29;20457;-51
2022/04/15 11:37:04;;;;;;;7.22;3.05;;;12.00;99.90;;;;;;4929419;29;20130;-50
2022/04/15 11:39:35;;;;;;;6.10;3.60;;;12.10;99.90;;;;;;4932207;29;20130;-51
2022/04/15 11:42:05;;;;;;;5.38;3.03;;;12.10;99.90;;;;;;4922778;29;20103;-50
2022/04/15 11:44:32;;;;;;;7.38;3.35;;;12.20;99.90;;;;;;4930557;29;20038;-51
2022/04/15 11:49:45;;;;;;;7.35;3.42;;;12.40;99.20;;;;;;4929188;29;20513;-52
2022/04/15 11:52:19;;;;;;;5.18;2.97;;;12.50;98.70;;;;;;4928506;29;20043;-52
2022/04/15 11:54:44;;;;;;;5.68;3.60;;;12.60;97.90;;;;;;4926062;29;20131;-52
2022/04/15 11:57:10;;;;;;;6.03;3.38;;;12.70;97.30;;;;;;4923518;29;20075;-49
2022/04/15 11:59:44;;;;;;;7.70;3.08;;;12.60;96.70;;;;;;4934226;29;20040;-51
2022/04/15 12:02:12;;;;;;;7.22;3.83;;;12.60;96.60;;;;;;4922672;29;20051;-51
2022/04/15 12:04:48;;;;;;;7.30;3.30;;;12.70;96.10;;;;;;4906264;29;20517;-50
2022/04/15 12:07:16;;;;;;;5.13;3.28;;;12.70;96.10;;;;;;4922513;29;20052;-51
2022/04/15 12:09:44;;;;;;;10.35;3.80;;;12.70;95.80;;;;;;4928473;29;20039;-47
2022/04/15 12:12:10;;;;;;;5.90;3.25;;;12.70;95.90;;;;;;4922201;29;20373;-50
2022/04/15 12:14:42;;;;;;;5.15;2.92;;;12.60;96.30;;;;;;4921736;29;20052;-53
2022/04/15 12:17:11;;;;;;;8.38;3.63;;;12.60;95.30;;;;;;4928025;29;20039;-49
2022/04/15 12:19:37;;;;;;;9.20;2.90;;;12.60;95.40;;;;;;4929159;29;20083;-53
2022/04/15 12:22:04;;;;;;;5.93;3.30;;;12.60;95.40;;;;;;4927374;29;20443;-49
2022/04/15 12:24:30;;;;;;;7.47;3.40;;;12.60;95.20;;;;;;4916322;29;20497;-53
2022/04/15 12:27:00;;;;;;;6.50;3.58;;;12.60;95.00;;;;;;4930356;29;20054;-48
2022/04/15 12:32:34;;;;;;;7.53;3.13;;;12.90;95.30;;;;;;4929209;29;20106;-53
2022/04/15 12:34:59;;;;;;;6.68;3.03;;;13.00;94.20;;;;;;4912255;29;20099;-53
2022/04/15 12:37:41;;;;;;;9.73;3.42;;;13.10;94.60;;;;;;4929366;29;20043;-52
2022/04/15 12:40:13;;;;;;;6.68;3.03;;;13.10;94.00;;;;;;4927304;29;20048;-50
2022/04/15 12:42:41;;;;;;;5.28;3.15;;;13.10;93.30;;;;;;4928370;29;20051;-52
2022/04/15 12:45:17;;;;;;;8.45;3.40;;;13.10;94.00;;;;;;4910402;29;20065;-53
2022/04/15 12:47:46;;;;;;;6.57;3.33;;;13.10;93.00;;;;;;4930275;29;20525;-52
2022/04/15 12:50:24;;;;;;;8.60;3.17;;;13.10;92.80;;;;;;4931605;29;20035;-53
2022/04/15 12:52:53;;;;;;;5.53;2.75;;;13.20;93.50;;;;;;4927200;29;21419;-51
2022/04/15 12:55:31;;;;;;;4.57;2.53;;;13.20;93.20;;;;;;4930287;29;20043;-51
2022/04/15 12:57:59;;;;;;;6.28;2.67;;;13.30;92.70;;;;;;4927860;29;20130;-53
2022/04/15 13:00:26;;;;;;;10.32;4.00;;;13.20;92.60;;;;;;4921924;29;20516;-54
2022/04/15 13:02:52;;;;;;;6.15;2.72;;;13.30;92.80;;;;;;4913600;29;20102;-54
2022/04/15 13:05:18;;;;;;;5.00;3.10;;;13.20;92.90;;;;;;4927535;29;20051;-53